• pl
  • eng

Awiacja
TAF FT 02:18 22.01.2017
  • WIND
  • SIGNIFICANT EURO
  • SIGNIFICANT
  • SIGMET
  • AIRMET
  • TAF FC
  • TAF FT
  • METAR GG30
  • METAR GG00


TAF EPBY 212330Z 2200/2224 VRB04KT 2000 BR BKN003
TEMPO 2200/2207 0400 FG OVC001
BECMG 2208/2211 7000 BKN008
PROB40 2215/2224 3000 BR SCT008=

TAF EPGD 212330Z 2200/2224 VRB04KT 0600 FG BKN002
TEMPO 2200/2207 0200 FZFG OVC001
BECMG 2207/2210 3000 BR BKN005
BECMG 2210/2212 20010KT 7000 BKN010
TEMPO 2215/2224 3000 BR BKN004=

TAF AMD EPKK 220116Z 2201/2224 VRB02KT 7000 BKN015
PROB40 TEMPO 2201/2206 1300 BR OVC003
BECMG 2215/2218 4000 BR
BECMG 2218/2220 0300 FZFG=

TAF AMD EPKT 220113Z 2201/2224 VRB02KT 3000 BR BKN012
TEMPO 2201/2206 0500 FZFG OVC004
BECMG 2206/2209 16010KT 7000 NSW SCT020
BECMG 2217/2220 2000 BR=

TAF EPLL 212330Z 2200/2224 VRB02KT 0900 FG OVC002
TEMPO 2200/2208 0400 FZFG OVC001
PROB40 TEMPO 2200/2208 -FZDZ
BECMG 2208/2211 5000 BR BKN010
BECMG 2212/2215 17010KT CAVOK
PROB40 2217/2224 2000 BR=

TAF EPMO 212330Z 2200/2224 VRB03KT 5000 BR OVC005
BECMG 2200/2203 1500 BR OVC002
TEMPO 2203/2209 0300 FZFG OVC001
BECMG 2209/2211 18010KT 5000 BR BKN008
PROB40 2218/2224 3000 BR NSC=

TAF EPPO 212330Z 2200/2224 14006KT 0300 FG OVC001
TEMPO 2200/2203 2000 BR OVC003
BECMG 2203/2206 3000 BR OVC003
BECMG 2209/2212 CAVOK
BECMG 2218/2221 4000 BR=

TAF EPRZ 212330Z 2200/2224 26005KT 2000 BR BKN012
TEMPO 2200/2206 0700 FG OVC003
BECMG 2206/2209 7000 NSW SCT020
BECMG 2213/2215 16010KT=

TAF EPSC 212330Z 2200/2224 VRB03KT 0700 FG BKN002
TEMPO 2200/2208 0200 FG OVC001
BECMG 2208/2211 3000 BR BKN005
PROB40 TEMPO 2211/2218 7000 SCT007
PROB40 2218/2224 1500 BR BKN002=

TAF EPWA 212330Z 2200/2224 VRB03KT 5000 BR OVC005
BECMG 2201/2204 2000 BR OVC003
TEMPO 2204/2208 0400 FG OVC001
BECMG 2209/2212 18010KT 6000 BKN008
PROB40 2218/2224 3000 BR NSC=

TAF EPWR 212330Z 2200/2224 13006KT 0800 FZFG SCT002
TEMPO 2200/2207 0300 FZFG OVC001
BECMG 2208/2211 CAVOK
BECMG 2216/2219 4000 BR=
Awiacja.imgw.pl jest pogodowym serwisem informacyjnym
Instytutu Meteorologii i Gospodarki Wodnej Państwowego Instytutu Badawczego.
Copyright IMGW PIB 2009-2011© Wszelkie prawa zastrzeżone.